createdAt,value
2019-02-22T00:00:03.998Z,3.13
2019-02-22T00:02:36.004Z,3.21
2019-02-22T00:05:06.753Z,3.16
2019-02-22T00:07:36.393Z,3.19
2019-02-22T00:10:07.933Z,3.23
2019-02-22T00:12:37.749Z,3.37
2019-02-22T00:15:08.204Z,3.35
2019-02-22T00:17:37.988Z,3.43
2019-02-22T00:20:07.989Z,3.31
2019-02-22T00:22:37.795Z,3.21
2019-02-22T00:25:07.722Z,3.15
2019-02-22T00:27:37.396Z,3.18
2019-02-22T00:30:07.252Z,3.15
2019-02-22T00:32:37.313Z,3.22
2019-02-22T00:47:44.516Z,3.18
2019-02-22T00:54:13.803Z,3.23
2019-02-22T00:56:43.388Z,3.19
2019-02-22T00:59:13.179Z,3.18
2019-02-22T01:04:54.719Z,2.95
2019-02-22T01:33:35.582Z,2.82
2019-02-22T01:36:05.439Z,2.80
2019-02-22T01:38:35.350Z,2.92
2019-02-22T01:43:46.331Z,2.88
2019-02-22T01:46:34.975Z,2.77
2019-02-22T01:49:05.396Z,2.81
2019-02-22T01:51:35.603Z,2.81
2019-02-22T02:13:30.494Z,2.87
2019-02-22T02:22:52.128Z,2.69
2019-02-22T02:28:45.448Z,2.56
2019-02-22T02:31:34.356Z,2.84
2019-02-22T02:36:39.190Z,2.75
2019-02-22T02:39:09.231Z,2.76
2019-02-22T02:41:38.962Z,2.77
2019-02-22T02:53:40.211Z,2.49
2019-02-22T03:03:21.512Z,2.31
2019-02-22T03:06:09.970Z,2.20
2019-02-22T03:08:39.753Z,2.16
2019-02-22T03:11:20.034Z,2.09
2019-02-22T03:13:41.088Z,2.16
2019-02-22T03:16:10.982Z,2.20
2019-02-22T03:21:23.202Z,2.06
2019-02-22T03:23:53.000Z,2.00
2019-02-22T03:26:22.705Z,1.98
2019-02-22T03:28:52.363Z,2.01
2019-02-22T03:34:04.352Z,1.96
2019-02-22T03:36:34.183Z,1.85
2019-02-22T03:48:04.725Z,1.89
2019-02-22T03:50:34.550Z,1.88
2019-02-22T03:56:09.941Z,1.76
2019-02-22T03:58:40.037Z,1.80
2019-02-22T04:01:10.040Z,1.70
2019-02-22T04:03:39.923Z,1.56
2019-02-22T04:06:09.745Z,1.62
2019-02-22T04:08:39.451Z,1.67
2019-02-22T04:11:09.270Z,1.60
2019-02-22T04:13:38.897Z,1.55
2019-02-22T04:16:08.877Z,1.62
2019-02-22T04:21:49.863Z,1.71
2019-02-22T04:24:19.532Z,1.65
2019-02-22T04:26:49.188Z,1.62
2019-02-22T04:32:13.067Z,1.65
2019-02-22T04:34:42.698Z,1.75
2019-02-22T04:37:12.603Z,1.89
2019-02-22T04:39:42.324Z,1.84
2019-02-22T04:44:59.583Z,1.74
2019-02-22T04:47:48.159Z,1.76
2019-02-22T04:50:17.921Z,1.76
2019-02-22T04:52:47.530Z,1.85
2019-02-22T04:55:17.132Z,1.90
2019-02-22T04:57:47.184Z,1.87
2019-02-22T05:00:16.887Z,1.83
2019-02-22T05:02:46.605Z,1.78
2019-02-22T05:10:27.020Z,1.83
2019-02-22T05:12:56.662Z,1.79
2019-02-22T05:15:26.899Z,1.83
2019-02-22T05:17:56.585Z,0.83
2019-02-22T05:20:26.158Z,1.82
2019-02-22T05:31:39.208Z,1.72
2019-02-22T05:34:09.525Z,1.26
2019-02-22T05:36:39.295Z,1.69
2019-02-22T05:39:18.447Z,1.71
2019-02-22T05:42:01.657Z,1.83
2019-02-22T05:44:31.799Z,1.87
2019-02-22T05:52:50.229Z,1.62
2019-02-22T05:58:47.734Z,1.66
2019-02-22T06:01:17.667Z,1.60
2019-02-22T06:03:47.741Z,1.63
2019-02-22T06:06:17.503Z,1.63
2019-02-22T06:14:35.665Z,1.52
2019-02-22T06:17:25.922Z,1.57
2019-02-22T06:19:55.747Z,1.57
2019-02-22T06:32:05.159Z,1.63
2019-02-22T06:37:59.020Z,1.60
2019-02-22T06:57:03.998Z,1.42
2019-02-22T06:59:36.934Z,1.53
2019-02-22T07:08:46.442Z,1.46
2019-02-22T07:17:48.883Z,1.50
2019-02-22T07:28:57.051Z,1.60
2019-02-22T07:31:27.339Z,1.41
2019-02-22T07:41:25.362Z,1.65
2019-02-22T07:46:56.689Z,1.59
2019-02-22T07:49:28.086Z,1.50
2019-02-22T07:55:12.447Z,1.61
2019-02-22T08:07:14.612Z,1.63
2019-02-22T08:09:44.590Z,1.68
2019-02-22T08:21:54.302Z,1.72
2019-02-22T08:24:25.909Z,1.69
2019-02-22T08:26:56.542Z,1.76
2019-02-22T08:29:26.783Z,1.89
2019-02-22T08:32:35.682Z,1.96
2019-02-22T08:35:06.047Z,1.92
2019-02-22T08:38:14.978Z,2.06
2019-02-22T08:43:59.461Z,2.04
2019-02-22T08:49:38.464Z,2.22
2019-02-22T08:52:08.161Z,2.23
2019-02-22T08:55:17.051Z,2.16
2019-02-22T08:58:08.595Z,2.13
2019-02-22T09:03:50.890Z,2.28
2019-02-22T09:12:41.252Z,2.41
2019-02-22T09:19:14.934Z,2.43
2019-02-22T09:24:55.631Z,2.66
2019-02-22T09:37:18.558Z,2.80
2019-02-22T09:39:48.347Z,2.66
2019-02-22T09:45:43.211Z,2.86
2019-02-22T09:51:36.622Z,2.96
2019-02-22T10:00:22.286Z,3.08
2019-02-22T10:12:30.378Z,3.92
2019-02-22T10:15:00.533Z,3.84
2019-02-22T10:18:07.928Z,3.64
2019-02-22T10:23:52.209Z,3.70
2019-02-22T10:27:01.063Z,3.69
2019-02-22T10:29:31.227Z,3.51
2019-02-22T10:38:29.415Z,3.60
2019-02-22T10:41:19.538Z,3.46
2019-02-22T10:44:17.354Z,3.22
2019-02-22T10:49:42.598Z,3.27
2019-02-22T10:55:59.031Z,3.36
2019-02-22T11:01:28.831Z,3.50
2019-02-22T11:03:58.655Z,3.53
2019-02-22T11:06:29.011Z,3.53
2019-02-22T11:12:10.592Z,3.60
2019-02-22T11:18:32.970Z,3.64
2019-02-22T11:27:47.521Z,3.85
2019-02-22T11:30:17.916Z,3.86
2019-02-22T11:33:08.009Z,4.00
2019-02-22T11:35:37.914Z,4.07
2019-02-22T11:38:07.898Z,3.99
2019-02-22T11:44:46.279Z,4.16
2019-02-22T11:56:22.862Z,4.54
2019-02-22T11:58:52.951Z,4.70
2019-02-22T12:01:42.976Z,4.50
2019-02-22T12:04:51.820Z,4.50
2019-02-22T12:13:32.661Z,4.81
2019-02-22T12:22:25.011Z,4.93
2019-02-22T12:35:19.661Z,4.45
2019-02-22T12:37:49.608Z,4.38
2019-02-22T12:46:48.007Z,4.37
2019-02-22T12:59:56.500Z,4.50
2019-02-22T13:02:26.490Z,4.50
2019-02-22T13:07:52.693Z,4.85
2019-02-22T13:10:59.913Z,4.85
2019-02-22T13:16:42.140Z,4.75
2019-02-22T13:19:49.660Z,4.70
2019-02-22T13:25:55.814Z,4.72
2019-02-22T13:28:25.744Z,4.72
2019-02-22T13:30:55.887Z,4.57
2019-02-22T13:34:03.364Z,4.56
2019-02-22T13:36:53.439Z,4.56
2019-02-22T13:39:23.348Z,4.61
2019-02-22T13:54:44.452Z,4.54
2019-02-22T14:00:17.995Z,4.42
2019-02-22T14:03:26.785Z,4.35
2019-02-22T14:08:50.881Z,4.22
2019-02-22T14:11:40.912Z,4.08
2019-02-22T14:14:30.991Z,4.20
2019-02-22T14:23:11.534Z,4.01
2019-02-22T14:35:33.208Z,4.00
2019-02-22T14:38:03.227Z,3.99
2019-02-22T14:40:33.298Z,4.04
2019-02-22T14:43:23.380Z,4.08
2019-02-22T14:48:47.324Z,3.87
2019-02-22T14:57:46.314Z,3.91
2019-02-22T15:09:28.916Z,3.78
2019-02-22T15:18:30.270Z,3.69
2019-02-22T15:24:18.154Z,3.82
2019-02-22T15:26:48.092Z,3.81
2019-02-22T15:29:17.929Z,3.69
2019-02-22T15:31:47.548Z,3.65
2019-02-22T15:34:17.306Z,3.67
2019-02-22T15:36:47.132Z,3.74
2019-02-22T15:39:16.851Z,3.66
2019-02-22T15:41:46.658Z,3.68
2019-02-22T15:44:16.489Z,3.68
2019-02-22T15:46:46.293Z,3.70
2019-02-22T15:49:16.161Z,3.67
2019-02-22T15:51:46.167Z,3.69
2019-02-22T15:54:15.867Z,3.69
2019-02-22T15:56:46.203Z,3.72
2019-02-22T15:59:15.857Z,3.68
2019-02-22T16:01:54.839Z,3.67
2019-02-22T16:04:39.084Z,3.65
2019-02-22T16:07:07.998Z,3.68
2019-02-22T16:09:37.936Z,3.74
2019-02-22T16:12:07.725Z,3.74
2019-02-22T16:14:37.599Z,3.57
2019-02-22T16:17:07.539Z,3.56
2019-02-22T16:19:37.210Z,3.61
2019-02-22T16:22:06.781Z,3.55
2019-02-22T16:24:36.778Z,3.53
2019-02-22T16:27:06.620Z,3.38
2019-02-22T16:29:36.537Z,3.38
2019-02-22T16:32:06.793Z,3.48
2019-02-22T16:34:43.583Z,3.49
2019-02-22T16:37:08.326Z,3.53
2019-02-22T16:39:38.122Z,3.52
2019-02-22T16:42:07.837Z,3.52
2019-02-22T16:44:37.982Z,3.28
2019-02-22T16:47:07.876Z,3.24
2019-02-22T16:49:37.957Z,3.25
2019-02-22T16:52:07.704Z,3.24
2019-02-22T16:54:37.737Z,3.36
2019-02-22T16:57:08.522Z,3.37
2019-02-22T16:59:38.517Z,3.28
2019-02-22T17:02:08.285Z,3.20
2019-02-22T17:04:38.760Z,3.15
2019-02-22T17:07:08.440Z,3.23
2019-02-22T17:09:38.087Z,3.26
2019-02-22T17:12:08.211Z,3.18
2019-02-22T17:14:38.095Z,3.17
2019-02-22T17:17:07.888Z,3.17
2019-02-22T17:19:37.964Z,3.11
2019-02-22T17:22:09.676Z,3.21
2019-02-22T17:24:40.956Z,3.26
2019-02-22T17:27:10.899Z,3.26
2019-02-22T17:29:40.908Z,3.23
2019-02-22T17:32:10.926Z,3.24
2019-02-22T17:34:40.599Z,3.21
2019-02-22T17:37:10.274Z,3.16
2019-02-22T17:39:40.429Z,3.20
2019-02-22T17:42:10.240Z,3.18
2019-02-22T17:44:39.893Z,3.13
2019-02-22T17:47:09.710Z,3.18
2019-02-22T17:49:39.414Z,3.11
2019-02-22T17:52:09.128Z,3.14
2019-02-22T17:54:38.982Z,3.24
2019-02-22T17:57:08.953Z,3.28
2019-02-22T17:59:38.633Z,3.29
2019-02-22T18:02:08.579Z,3.26
2019-02-22T18:04:38.597Z,3.26
2019-02-22T18:07:08.518Z,3.33
2019-02-22T18:09:38.684Z,3.33
2019-02-22T18:12:08.321Z,3.33
2019-02-22T18:14:38.091Z,3.35
2019-02-22T18:17:08.869Z,3.23
2019-02-22T18:19:38.745Z,3.21
2019-02-22T18:22:08.521Z,3.17
2019-02-22T18:24:38.556Z,3.06
2019-02-22T18:27:08.368Z,3.16
2019-02-22T18:29:38.071Z,3.25
2019-02-22T18:32:08.363Z,3.31
2019-02-22T18:34:38.356Z,3.32
2019-02-22T18:37:08.308Z,3.35
2019-02-22T18:39:38.319Z,3.43
2019-02-22T18:42:08.038Z,3.48
2019-02-22T18:44:37.761Z,3.48
2019-02-22T18:47:18.747Z,3.56
2019-02-22T18:49:39.528Z,3.62
2019-02-22T18:52:09.485Z,3.62
2019-02-22T18:54:39.110Z,3.63
2019-02-22T18:57:08.960Z,3.67
2019-02-22T18:59:38.854Z,3.65
2019-02-22T19:02:08.482Z,3.70
2019-02-22T19:04:38.523Z,3.68
2019-02-22T19:07:08.477Z,3.70
2019-02-22T19:09:38.153Z,3.70
2019-02-22T19:12:08.157Z,3.72
2019-02-22T19:14:38.260Z,3.82
2019-02-22T19:17:07.985Z,3.85
2019-02-22T19:19:37.653Z,3.84
2019-02-22T19:22:07.535Z,3.91
2019-02-22T19:24:37.404Z,3.86
2019-02-22T19:27:07.208Z,3.85
2019-02-22T19:29:38.362Z,3.86
2019-02-22T19:32:08.160Z,3.87
2019-02-22T19:34:37.757Z,3.86
2019-02-22T19:37:09.067Z,3.89
2019-02-22T19:39:38.816Z,3.93
2019-02-22T19:42:08.729Z,3.93
2019-02-22T19:44:38.772Z,3.94
2019-02-22T19:47:08.507Z,3.94
2019-02-22T19:49:40.320Z,3.98
2019-02-22T19:52:10.237Z,4.01
2019-02-22T19:54:40.140Z,3.05
2019-02-22T19:57:10.021Z,3.97
2019-02-22T19:59:40.004Z,3.99
2019-02-22T20:02:09.848Z,4.01
2019-02-22T20:04:39.952Z,4.04
2019-02-22T20:07:09.708Z,4.07
2019-02-22T20:09:39.295Z,4.03
2019-02-22T20:12:09.351Z,4.05
2019-02-22T20:14:39.117Z,4.11
2019-02-22T20:17:09.129Z,4.01
2019-02-22T20:19:39.071Z,4.00
2019-02-22T20:22:10.932Z,4.02
2019-02-22T20:24:40.229Z,4.10
2019-02-22T20:27:10.031Z,4.14
2019-02-22T20:29:39.639Z,4.11
2019-02-22T20:32:09.422Z,4.02
2019-02-22T20:34:39.212Z,4.01
2019-02-22T20:37:09.359Z,4.07
2019-02-22T20:39:39.177Z,4.14
2019-02-22T20:42:08.902Z,4.16
2019-02-22T20:44:38.763Z,4.17
2019-02-22T20:47:09.065Z,4.14
2019-02-22T20:49:38.784Z,4.15
2019-02-22T20:52:08.633Z,4.13
2019-02-22T20:54:38.346Z,4.16
2019-02-22T20:57:08.211Z,4.13
2019-02-22T20:59:37.971Z,4.15
2019-02-22T21:02:07.713Z,4.15
2019-02-22T21:04:37.643Z,4.21
2019-02-22T21:07:07.366Z,4.19
2019-02-22T21:09:37.287Z,4.18
2019-02-22T21:12:07.345Z,4.18
2019-02-22T21:14:37.231Z,4.19
2019-02-22T21:17:07.029Z,4.24
2019-02-22T21:19:36.905Z,4.25
2019-02-22T21:22:06.736Z,4.26
2019-02-22T21:24:36.617Z,4.19
2019-02-22T21:27:06.632Z,4.25
2019-02-22T21:29:39.060Z,4.14
2019-02-22T21:32:08.246Z,4.11
2019-02-22T21:34:38.054Z,4.16
2019-02-22T21:37:08.410Z,4.13
2019-02-22T21:39:39.617Z,4.16
2019-02-22T21:42:19.663Z,4.23
2019-02-22T21:44:41.575Z,4.17
2019-02-22T21:47:11.415Z,4.15
2019-02-22T21:49:41.290Z,4.14
2019-02-22T21:52:11.716Z,4.12
2019-02-22T21:54:41.443Z,4.12
2019-02-22T21:57:11.380Z,4.11
2019-02-22T21:59:41.545Z,4.14
2019-02-22T22:02:11.347Z,4.08
2019-02-22T22:04:41.091Z,4.10
2019-02-22T22:07:10.973Z,4.20
2019-02-22T22:09:40.673Z,4.18
2019-02-22T22:12:10.404Z,4.21
2019-02-22T22:14:40.121Z,4.22
2019-02-22T22:17:10.303Z,4.18
2019-02-22T22:19:40.184Z,4.18
2019-02-22T22:22:10.036Z,4.14
2019-02-22T22:24:40.078Z,4.04
2019-02-22T22:27:10.015Z,4.03
2019-02-22T22:29:40.014Z,4.07
2019-02-22T22:32:09.687Z,4.11
2019-02-22T22:34:39.414Z,4.05
2019-02-22T22:37:09.574Z,4.00
2019-02-22T22:39:39.548Z,3.99
2019-02-22T22:42:09.145Z,4.03
2019-02-22T22:44:39.268Z,4.07
2019-02-22T22:47:09.334Z,4.04
2019-02-22T22:49:39.337Z,4.05
2019-02-22T22:52:09.673Z,4.04
2019-02-22T22:54:39.668Z,3.99
2019-02-22T22:57:09.437Z,4.06
2019-02-22T22:59:39.675Z,4.04
2019-02-22T23:02:09.763Z,4.05
2019-02-22T23:04:39.992Z,4.09
2019-02-22T23:07:10.129Z,4.10
2019-02-22T23:09:40.083Z,4.10
2019-02-22T23:12:10.220Z,4.12
2019-02-22T23:14:40.713Z,4.07
2019-02-22T23:17:10.312Z,3.98
2019-02-22T23:19:40.204Z,3.90
2019-02-22T23:22:09.844Z,3.85
2019-02-22T23:24:39.764Z,3.91
2019-02-22T23:27:09.763Z,3.89
2019-02-22T23:29:39.465Z,3.96
2019-02-22T23:32:09.248Z,3.98
2019-02-22T23:34:38.981Z,4.01
2019-02-22T23:37:08.749Z,4.01
2019-02-22T23:39:38.824Z,3.94
2019-02-22T23:42:08.714Z,3.91
2019-02-22T23:44:38.622Z,3.92
2019-02-22T23:47:08.441Z,3.91
2019-02-22T23:49:38.502Z,3.83
2019-02-22T23:52:08.176Z,3.93
2019-02-22T23:54:37.934Z,4.03
2019-02-22T23:57:07.753Z,4.07
2019-02-22T23:59:37.366Z,4.06
